createdAt,value
2023-03-13T00:01:47.213Z,16.80
2023-03-13T00:04:15.376Z,16.80
2023-03-13T00:06:43.459Z,16.50
2023-03-13T00:09:13.936Z,16.70
2023-03-13T00:11:42.832Z,17.30
2023-03-13T00:14:10.996Z,17.20
2023-03-13T00:16:39.904Z,17.20
2023-03-13T00:19:08.962Z,15.90
2023-03-13T00:21:41.468Z,15.80
2023-03-13T00:24:12.480Z,16.20
2023-03-13T00:26:40.697Z,15.40
2023-03-13T00:29:08.779Z,16.10
2023-03-13T00:31:37.652Z,18.10
2023-03-13T00:34:05.857Z,16.80
2023-03-13T00:36:35.776Z,16.30
2023-03-13T00:39:06.086Z,16.80
2023-03-13T00:41:37.446Z,16.60
2023-03-13T00:44:07.193Z,16.80
2023-03-13T00:46:35.595Z,17.40
2023-03-13T00:49:04.191Z,17.80
2023-03-13T00:51:35.716Z,16.80
2023-03-13T00:54:04.960Z,16.60
2023-03-13T00:56:34.393Z,16.20
2023-03-13T00:59:03.012Z,13.90
2023-03-13T01:01:34.259Z,14.70
2023-03-13T01:04:06.055Z,15.10
2023-03-13T01:06:37.237Z,14.70
2023-03-13T01:09:07.198Z,13.70
2023-03-13T01:11:37.756Z,13.50
2023-03-13T01:14:09.565Z,13.20
2023-03-13T01:16:39.064Z,12.50
2023-03-13T01:19:13.663Z,11.30
2023-03-13T01:21:43.702Z,10.80
2023-03-13T01:24:12.000Z,11.60
2023-03-13T01:26:40.405Z,11.20
2023-03-13T01:29:08.795Z,10.80
2023-03-13T01:31:37.528Z,12.10
2023-03-13T01:34:08.664Z,11.90
2023-03-13T01:36:38.065Z,11.00
2023-03-13T01:39:06.246Z,9.70
2023-03-13T01:41:34.345Z,9.30
2023-03-13T01:44:02.553Z,8.50
2023-03-13T01:46:34.688Z,8.70
2023-03-13T01:49:25.237Z,8.00
2023-03-13T01:52:05.869Z,8.20
2023-03-13T01:54:43.024Z,8.80
2023-03-13T01:57:26.525Z,9.00
2023-03-13T02:00:08.545Z,10.30
2023-03-13T02:02:55.547Z,10.60
2023-03-13T02:05:26.671Z,10.10
2023-03-13T02:08:07.505Z,10.20
2023-03-13T02:10:45.049Z,9.90
2023-03-13T02:13:15.498Z,9.40
2023-03-13T02:15:44.936Z,9.40
2023-03-13T02:18:13.830Z,10.60
2023-03-13T02:20:42.217Z,9.30
2023-03-13T02:23:22.672Z,9.20
2023-03-13T02:25:53.664Z,9.50
2023-03-13T02:28:35.098Z,9.10
2023-03-13T02:31:06.503Z,10.10
2023-03-13T02:33:41.253Z,9.60
2023-03-13T02:36:14.297Z,9.30
2023-03-13T02:38:56.425Z,10.20
2023-03-13T02:43:56.022Z,9.50
2023-03-13T02:46:24.756Z,8.90
2023-03-13T02:48:57.195Z,8.50
2023-03-13T02:51:44.980Z,8.40
2023-03-13T02:54:19.374Z,7.90
2023-03-13T02:56:51.205Z,8.50
2023-03-13T02:59:19.368Z,8.40
2023-03-13T03:01:47.783Z,8.10
2023-03-13T03:04:15.884Z,9.10
2023-03-13T03:06:44.108Z,7.80
2023-03-13T03:09:12.366Z,9.20
2023-03-13T03:11:41.158Z,8.30
2023-03-13T03:14:13.715Z,8.70
2023-03-13T03:16:44.880Z,8.90
2023-03-13T03:19:13.199Z,8.30
2023-03-13T03:21:41.384Z,9.20
2023-03-13T03:24:09.518Z,9.10
2023-03-13T03:26:37.870Z,8.90
2023-03-13T03:29:12.210Z,9.50
2023-03-13T03:31:41.092Z,8.80
2023-03-13T03:34:10.470Z,9.30
2023-03-13T03:36:39.037Z,9.20
2023-03-13T03:39:07.308Z,9.60
2023-03-13T03:41:37.456Z,10.50
2023-03-13T03:44:06.767Z,9.20
2023-03-13T03:46:57.781Z,9.60
2023-03-13T03:49:27.331Z,10.00
2023-03-13T03:51:55.675Z,10.70
2023-03-13T03:54:29.425Z,9.60
2023-03-13T03:56:58.004Z,9.70
2023-03-13T03:59:26.357Z,9.80
2023-03-13T04:02:05.093Z,9.60
2023-03-13T04:04:34.170Z,10.30
2023-03-13T04:07:19.130Z,10.40
2023-03-13T04:09:47.455Z,10.30
2023-03-13T04:12:23.352Z,10.30
2023-03-13T04:14:54.072Z,10.50
2023-03-13T04:17:22.477Z,10.50
2023-03-13T04:19:50.663Z,10.20
2023-03-13T04:22:19.113Z,10.80
2023-03-13T04:24:51.776Z,9.90
2023-03-13T04:27:21.349Z,10.30
2023-03-13T04:29:50.210Z,9.90
2023-03-13T04:32:41.901Z,9.80
2023-03-13T04:35:10.310Z,10.10
2023-03-13T04:38:02.646Z,10.40
2023-03-13T04:40:56.811Z,9.70
2023-03-13T04:43:51.130Z,10.20
2023-03-13T04:46:48.838Z,10.00
2023-03-13T04:49:52.230Z,9.70
2023-03-13T04:52:52.451Z,10.10
2023-03-13T04:55:41.418Z,10.70
2023-03-13T04:58:38.008Z,10.20
2023-03-13T05:01:12.764Z,11.00
2023-03-13T05:04:11.427Z,10.40
2023-03-13T05:06:59.360Z,10.90
2023-03-13T05:09:33.507Z,11.50
2023-03-13T05:12:19.303Z,9.10
2023-03-13T05:15:07.580Z,11.50
2023-03-13T05:17:57.167Z,10.80
2023-03-13T05:20:50.596Z,10.60
2023-03-13T05:23:37.531Z,10.90
2023-03-13T05:26:22.564Z,10.00
2023-03-13T05:29:09.649Z,10.90
2023-03-13T05:31:50.153Z,10.30
2023-03-13T05:34:31.212Z,10.10
2023-03-13T05:36:59.292Z,11.00
2023-03-13T05:39:39.689Z,11.60
2023-03-13T05:42:22.546Z,10.50
2023-03-13T05:45:01.279Z,11.00
2023-03-13T05:47:48.199Z,10.50
2023-03-13T05:50:39.578Z,12.00
2023-03-13T05:53:22.443Z,11.20
2023-03-13T05:56:13.615Z,10.20
2023-03-13T05:58:59.177Z,11.70
2023-03-13T06:01:37.307Z,11.70
2023-03-13T06:04:13.909Z,12.30
2023-03-13T06:06:42.534Z,11.70
2023-03-13T06:09:11.871Z,12.90
2023-03-13T06:11:41.782Z,11.30
2023-03-13T06:14:10.315Z,12.70
2023-03-13T06:16:44.432Z,12.50
2023-03-13T06:19:24.529Z,11.60
2023-03-13T06:21:53.059Z,12.80
2023-03-13T06:24:21.086Z,13.00
2023-03-13T06:26:50.422Z,13.50
2023-03-13T06:29:18.743Z,12.80
2023-03-13T06:31:46.961Z,12.60
2023-03-13T06:34:15.362Z,12.80
2023-03-13T06:36:43.677Z,12.50
2023-03-13T06:39:12.744Z,13.00
2023-03-13T06:41:40.961Z,13.70
2023-03-13T06:44:08.981Z,14.70
2023-03-13T06:46:37.123Z,13.60
2023-03-13T06:49:06.394Z,13.80
2023-03-13T06:51:34.471Z,12.60
2023-03-13T06:54:03.518Z,14.70
2023-03-13T06:56:32.367Z,13.60
2023-03-13T06:59:00.741Z,13.40
2023-03-13T07:01:28.853Z,14.10
2023-03-13T07:03:57.145Z,13.40
2023-03-13T07:06:25.355Z,14.50
2023-03-13T07:08:53.567Z,13.30
2023-03-13T07:11:21.788Z,13.80
2023-03-13T07:13:49.824Z,14.50
2023-03-13T07:16:18.318Z,13.20
2023-03-13T07:18:46.405Z,14.00
2023-03-13T07:21:14.633Z,13.90
2023-03-13T07:23:42.729Z,13.40
2023-03-13T07:26:16.679Z,13.60
2023-03-13T07:28:44.826Z,12.50
2023-03-13T07:31:20.999Z,13.00
2023-03-13T07:33:49.803Z,13.40
2023-03-13T07:36:17.979Z,12.70
2023-03-13T07:38:49.998Z,13.70
2023-03-13T07:41:18.710Z,12.30
2023-03-13T07:43:46.847Z,13.40
2023-03-13T07:46:20.248Z,13.50
2023-03-13T07:48:49.197Z,13.00
2023-03-13T07:51:25.286Z,12.70
2023-03-13T07:53:58.685Z,12.30
2023-03-13T07:56:26.898Z,12.10
2023-03-13T07:58:54.946Z,11.20
2023-03-13T08:01:27.885Z,12.90
2023-03-13T08:03:58.863Z,11.90
2023-03-13T08:06:32.618Z,11.40
2023-03-13T08:09:02.106Z,12.50
2023-03-13T08:11:30.385Z,12.30
2023-03-13T08:13:58.626Z,11.70
2023-03-13T08:16:29.620Z,12.70
2023-03-13T08:18:58.880Z,13.10
2023-03-13T08:21:29.476Z,12.10
2023-03-13T08:23:59.974Z,12.80
2023-03-13T08:26:30.452Z,13.40
2023-03-13T08:29:01.982Z,13.40
2023-03-13T08:31:33.380Z,11.90
2023-03-13T08:34:01.551Z,15.00
2023-03-13T08:36:36.025Z,13.80
2023-03-13T08:39:16.268Z,14.20
2023-03-13T08:41:44.447Z,14.50
2023-03-13T08:44:15.196Z,13.70
2023-03-13T08:46:44.278Z,15.20
2023-03-13T08:49:13.449Z,13.80
2023-03-13T08:51:42.304Z,14.60
2023-03-13T08:54:10.833Z,15.90
2023-03-13T08:56:39.022Z,16.60
2023-03-13T08:59:07.237Z,15.10
2023-03-13T09:01:36.805Z,15.30
2023-03-13T09:04:05.563Z,15.60
2023-03-13T09:06:35.996Z,15.80
2023-03-13T09:09:05.882Z,16.50
2023-03-13T09:11:36.247Z,15.80
2023-03-13T09:14:04.387Z,16.30
2023-03-13T09:16:35.026Z,16.00
2023-03-13T09:19:03.166Z,16.30
2023-03-13T09:21:33.781Z,16.50
2023-03-13T09:24:02.404Z,17.20
2023-03-13T09:26:30.818Z,17.20
2023-03-13T09:28:59.117Z,17.80
2023-03-13T09:31:32.639Z,17.90
2023-03-13T09:34:01.309Z,17.10
2023-03-13T09:36:29.649Z,17.20
2023-03-13T09:38:59.552Z,17.70
2023-03-13T09:41:45.517Z,16.90
2023-03-13T09:44:20.038Z,17.00
2023-03-13T09:46:54.057Z,16.10
2023-03-13T09:49:37.930Z,16.70
2023-03-13T09:52:15.850Z,16.20
2023-03-13T09:54:50.122Z,16.30
2023-03-13T09:57:22.289Z,16.10
2023-03-13T10:00:21.980Z,17.00
2023-03-13T10:03:11.994Z,16.60
2023-03-13T10:05:46.583Z,14.90
2023-03-13T10:08:24.812Z,14.10
2023-03-13T10:11:11.783Z,14.60
2023-03-13T10:13:55.275Z,14.10
2023-03-13T10:16:26.655Z,13.60
2023-03-13T10:18:58.284Z,13.70
2023-03-13T10:21:34.174Z,13.60
2023-03-13T10:24:36.988Z,13.40
2023-03-13T10:27:05.087Z,12.60
2023-03-13T10:29:33.694Z,12.60
2023-03-13T10:32:05.183Z,12.70
2023-03-13T10:35:06.138Z,13.10
2023-03-13T10:37:43.965Z,11.90
2023-03-13T10:40:25.277Z,12.00
2023-03-13T10:43:01.402Z,9.70
2023-03-13T10:45:36.006Z,11.00
2023-03-13T10:48:13.046Z,11.30
2023-03-13T10:50:49.519Z,11.30
2023-03-13T10:53:20.299Z,9.80
2023-03-13T10:55:48.699Z,10.40
2023-03-13T10:58:35.506Z,9.80
2023-03-13T11:01:16.800Z,10.30
2023-03-13T11:03:46.738Z,9.50
2023-03-13T11:06:37.773Z,9.00
2023-03-13T11:09:16.405Z,8.80
2023-03-13T11:12:11.942Z,8.50
2023-03-13T11:14:40.936Z,8.20
2023-03-13T11:17:12.123Z,7.60
2023-03-13T11:20:01.108Z,7.50
2023-03-13T11:22:50.500Z,8.30
2023-03-13T11:25:39.437Z,8.20
2023-03-13T11:28:50.638Z,8.90
2023-03-13T11:31:42.553Z,8.10
2023-03-13T11:34:36.340Z,7.90
2023-03-13T11:37:15.385Z,7.70
2023-03-13T11:39:52.833Z,7.70
2023-03-13T11:42:42.880Z,7.10
2023-03-13T11:45:40.755Z,7.10
2023-03-13T11:48:20.829Z,7.40
2023-03-13T11:50:55.252Z,8.40
2023-03-13T11:53:26.513Z,8.90
2023-03-13T11:56:32.797Z,9.50
2023-03-13T11:59:24.916Z,9.40
2023-03-13T12:02:02.814Z,9.10
2023-03-13T12:04:37.141Z,8.50
2023-03-13T12:07:20.809Z,8.60
2023-03-13T12:10:03.112Z,7.60
2023-03-13T12:12:44.658Z,8.50
2023-03-13T12:15:28.095Z,8.80
2023-03-13T12:18:24.302Z,8.10
2023-03-13T12:21:12.438Z,7.40
2023-03-13T12:23:48.954Z,8.10
2023-03-13T12:26:21.043Z,8.70
2023-03-13T12:29:17.285Z,9.10
2023-03-13T12:32:04.564Z,7.90
2023-03-13T12:34:41.678Z,8.70
2023-03-13T12:37:20.143Z,7.10
2023-03-13T12:39:57.981Z,8.50
2023-03-13T12:42:40.135Z,9.20
2023-03-13T12:45:14.801Z,8.20
2023-03-13T12:48:04.676Z,8.00
2023-03-13T12:50:45.331Z,7.60
2023-03-13T12:54:10.370Z,8.40
2023-03-13T12:56:44.372Z,8.60
2023-03-13T12:59:15.236Z,7.00
2023-03-13T13:01:47.589Z,7.70
2023-03-13T13:07:03.268Z,7.60
2023-03-13T13:09:37.355Z,7.80
2023-03-13T13:12:14.778Z,6.40
2023-03-13T13:14:49.060Z,8.30
2023-03-13T13:17:39.150Z,7.60
2023-03-13T13:20:26.714Z,8.20
2023-03-13T13:22:55.219Z,7.30
2023-03-13T13:25:34.092Z,6.50
2023-03-13T13:28:35.361Z,6.80
2023-03-13T13:31:41.940Z,6.90
2023-03-13T13:34:30.910Z,6.30
2023-03-13T13:37:00.481Z,6.50
2023-03-13T13:39:40.542Z,5.90
2023-03-13T13:42:30.761Z,6.10
2023-03-13T13:45:01.807Z,6.20
2023-03-13T13:47:33.617Z,6.60
2023-03-13T13:52:41.847Z,6.20
2023-03-13T13:55:22.246Z,6.80
2023-03-13T13:57:59.320Z,6.00
2023-03-13T14:00:35.026Z,5.20
2023-03-13T14:03:03.751Z,6.20
2023-03-13T14:05:32.706Z,5.60
2023-03-13T14:08:08.802Z,5.50
2023-03-13T14:10:40.216Z,6.00
2023-03-13T14:13:17.278Z,5.60
2023-03-13T14:15:50.199Z,7.20
2023-03-13T14:18:21.095Z,6.20
2023-03-13T14:20:59.471Z,5.80
2023-03-13T14:23:42.296Z,5.80
2023-03-13T14:26:19.933Z,5.60
2023-03-13T14:29:03.801Z,6.20
2023-03-13T14:31:39.255Z,5.50
2023-03-13T14:34:11.858Z,5.70
2023-03-13T14:37:11.171Z,6.00
2023-03-13T14:39:48.863Z,5.50
2023-03-13T14:42:18.872Z,5.80
2023-03-13T14:44:50.601Z,5.40
2023-03-13T14:47:31.343Z,4.80
2023-03-13T14:50:12.619Z,6.20
2023-03-13T14:52:50.810Z,5.00
2023-03-13T14:55:22.237Z,5.00
2023-03-13T14:58:01.484Z,4.70
2023-03-13T15:00:40.774Z,5.20
2023-03-13T15:03:20.321Z,4.50
2023-03-13T15:06:05.509Z,5.30
2023-03-13T15:08:38.802Z,4.70
2023-03-13T15:11:34.145Z,4.90
2023-03-13T15:14:02.478Z,5.50
2023-03-13T15:16:30.774Z,4.40
2023-03-13T15:18:58.926Z,4.80
2023-03-13T15:21:33.476Z,4.30
2023-03-13T15:24:15.036Z,4.20
2023-03-13T15:26:43.674Z,3.90
2023-03-13T15:29:11.818Z,5.00
2023-03-13T15:31:40.291Z,4.80
2023-03-13T15:34:13.429Z,4.10
2023-03-13T15:36:42.770Z,4.30
2023-03-13T15:39:16.323Z,4.50
2023-03-13T15:41:44.479Z,5.50
2023-03-13T15:44:12.699Z,4.60
2023-03-13T15:46:40.998Z,4.50
2023-03-13T15:49:13.063Z,3.80
2023-03-13T15:51:41.412Z,4.10
2023-03-13T15:54:09.657Z,4.00
2023-03-13T15:56:39.145Z,4.20
2023-03-13T15:59:12.607Z,4.60
2023-03-13T16:01:41.622Z,4.60
2023-03-13T16:04:11.336Z,4.90
2023-03-13T16:06:40.048Z,4.60
2023-03-13T16:09:08.835Z,5.10
2023-03-13T16:11:36.966Z,5.50
2023-03-13T16:14:05.612Z,6.10
2023-03-13T16:16:37.674Z,5.10
2023-03-13T16:21:40.595Z,5.30
2023-03-13T16:24:09.007Z,4.90
2023-03-13T16:26:37.342Z,5.10
2023-03-13T16:29:05.888Z,3.90
2023-03-13T16:31:34.105Z,4.90
2023-03-13T16:34:03.564Z,5.30
2023-03-13T16:36:32.503Z,5.40
2023-03-13T16:39:04.316Z,4.50
2023-03-13T16:41:33.054Z,4.00
2023-03-13T16:44:02.909Z,5.20
2023-03-13T16:46:40.102Z,5.20
2023-03-13T16:49:14.000Z,5.50
2023-03-13T16:51:42.331Z,5.50
2023-03-13T16:54:12.185Z,5.30
2023-03-13T16:56:43.372Z,4.80
2023-03-13T16:59:21.627Z,5.20
2023-03-13T17:01:50.337Z,5.20
2023-03-13T17:04:18.828Z,4.40
2023-03-13T17:06:47.910Z,4.50
2023-03-13T17:09:17.786Z,5.00
2023-03-13T17:11:46.004Z,6.20
2023-03-13T17:14:14.203Z,5.20
2023-03-13T17:16:44.714Z,5.60
2023-03-13T17:19:14.496Z,6.00
2023-03-13T17:21:42.968Z,6.30
2023-03-13T17:24:11.343Z,5.50
2023-03-13T17:26:40.814Z,5.60
2023-03-13T17:29:15.973Z,4.60
2023-03-13T17:31:44.909Z,5.70
2023-03-13T17:34:13.189Z,6.00
2023-03-13T17:36:41.543Z,6.70
2023-03-13T17:39:13.109Z,5.00
2023-03-13T17:41:41.847Z,5.50
2023-03-13T17:44:10.086Z,5.50
2023-03-13T17:46:42.276Z,5.50
2023-03-13T17:51:46.229Z,6.10
2023-03-13T17:54:16.030Z,6.30
2023-03-13T17:56:45.390Z,6.10
2023-03-13T17:59:18.710Z,5.80
2023-03-13T18:01:47.045Z,6.00
2023-03-13T18:04:15.293Z,5.90
2023-03-13T18:06:46.153Z,5.80
2023-03-13T18:09:20.800Z,6.90
2023-03-13T18:11:49.913Z,6.90
2023-03-13T18:14:18.141Z,6.30
2023-03-13T18:16:48.334Z,6.40
2023-03-13T18:19:22.421Z,6.70
2023-03-13T18:21:53.765Z,6.80
2023-03-13T18:24:23.007Z,7.30
2023-03-13T18:26:51.440Z,6.90
2023-03-13T18:29:29.297Z,7.20
2023-03-13T18:32:00.499Z,6.30
2023-03-13T18:34:29.735Z,7.30
2023-03-13T18:37:04.132Z,7.30
2023-03-13T18:39:33.107Z,6.70
2023-03-13T18:42:02.220Z,6.60
2023-03-13T18:44:30.306Z,6.40
2023-03-13T18:46:58.816Z,6.50
2023-03-13T18:49:26.940Z,6.80
2023-03-13T18:51:55.853Z,6.50
2023-03-13T18:54:24.196Z,7.50
2023-03-13T18:56:52.280Z,7.60
2023-03-13T18:59:22.547Z,7.90
2023-03-13T19:01:51.272Z,8.10
2023-03-13T19:04:20.258Z,7.50
2023-03-13T19:06:48.524Z,7.50
2023-03-13T19:12:07.622Z,7.30
2023-03-13T19:14:35.890Z,7.50
2023-03-13T19:17:07.269Z,7.40
2023-03-13T19:19:35.473Z,7.10
2023-03-13T19:22:03.695Z,8.10
2023-03-13T19:24:32.111Z,8.10
2023-03-13T19:27:00.509Z,7.40
2023-03-13T19:29:29.125Z,8.20
2023-03-13T19:31:59.319Z,7.70
2023-03-13T19:34:27.596Z,8.20
2023-03-13T19:36:55.771Z,8.00
2023-03-13T19:39:25.686Z,7.90
2023-03-13T19:41:54.244Z,8.20
2023-03-13T19:44:22.403Z,7.40
2023-03-13T19:46:56.022Z,7.90
2023-03-13T19:49:24.164Z,7.50
2023-03-13T19:51:52.363Z,7.90
2023-03-13T19:54:20.529Z,8.20
2023-03-13T19:56:49.629Z,9.20
2023-03-13T19:59:20.865Z,8.10
2023-03-13T20:01:49.384Z,7.40
2023-03-13T20:04:17.502Z,7.10
2023-03-13T20:06:45.857Z,7.70
2023-03-13T20:09:17.176Z,7.90
2023-03-13T20:11:45.405Z,7.90
2023-03-13T20:14:13.492Z,8.50
2023-03-13T21:10:31.193Z,7.10
2023-03-13T21:12:59.346Z,7.60
2023-03-13T21:15:27.437Z,7.70
2023-03-13T21:17:56.545Z,7.40
2023-03-13T21:20:25.408Z,7.60
2023-03-13T21:22:53.847Z,7.80
2023-03-13T21:25:22.693Z,7.60
2023-03-13T21:27:50.820Z,8.70
2023-03-13T21:30:21.416Z,8.10
2023-03-13T21:32:49.574Z,9.60
2023-03-13T21:35:17.865Z,9.00
2023-03-13T21:37:45.994Z,8.40
2023-03-13T21:40:14.415Z,9.60
2023-03-13T21:42:42.649Z,8.50
2023-03-13T21:45:11.225Z,8.70
2023-03-13T21:47:39.504Z,7.90
2023-03-13T21:50:10.193Z,7.80
2023-03-13T21:52:41.308Z,8.30
2023-03-13T21:55:12.872Z,8.00
2023-03-13T21:57:41.290Z,8.10
2023-03-13T22:00:10.755Z,7.90
2023-03-13T22:02:38.972Z,7.70
2023-03-13T22:05:08.202Z,7.60
2023-03-13T22:07:36.936Z,8.00
2023-03-13T22:10:05.441Z,7.50
2023-03-13T22:12:34.004Z,7.10
2023-03-13T22:15:02.052Z,7.70
2023-03-13T22:17:30.204Z,7.60
2023-03-13T22:19:58.468Z,8.00
2023-03-13T22:22:26.664Z,7.50
2023-03-13T22:24:54.669Z,7.30
2023-03-13T22:27:24.288Z,6.50
2023-03-13T22:29:52.520Z,8.10
2023-03-13T22:32:20.646Z,7.40
2023-03-13T22:34:49.329Z,7.60
2023-03-13T22:37:19.731Z,7.10
2023-03-13T22:39:50.142Z,7.40
2023-03-13T22:42:18.267Z,6.90
2023-03-13T22:44:46.380Z,7.70
2023-03-13T22:47:14.667Z,7.40
2023-03-13T22:49:42.766Z,7.60
2023-03-13T22:52:10.794Z,6.70
2023-03-13T22:54:39.084Z,7.60
2023-03-13T22:57:07.207Z,6.90
2023-03-13T22:59:35.631Z,7.10
2023-03-13T23:02:04.081Z,7.40
2023-03-13T23:04:32.356Z,6.70
2023-03-13T23:07:00.469Z,6.70
2023-03-13T23:09:28.537Z,6.10
2023-03-13T23:11:56.720Z,7.60
2023-03-13T23:14:29.093Z,6.80
2023-03-13T23:16:57.864Z,7.40
2023-03-13T23:19:26.106Z,6.60
2023-03-13T23:21:54.608Z,6.10
2023-03-13T23:24:22.700Z,6.90
2023-03-13T23:26:50.830Z,6.50
2023-03-13T23:29:18.936Z,6.20
2023-03-13T23:31:47.036Z,6.70
2023-03-13T23:34:21.641Z,7.30
2023-03-13T23:36:49.923Z,6.60
2023-03-13T23:39:18.377Z,6.30
2023-03-13T23:41:46.505Z,6.20
2023-03-13T23:44:14.643Z,6.40
2023-03-13T23:46:42.697Z,6.20
2023-03-13T23:49:12.868Z,6.10
2023-03-13T23:51:41.102Z,6.70
2023-03-13T23:54:09.177Z,6.20
2023-03-13T23:56:37.405Z,6.50
2023-03-13T23:59:05.625Z,5.90
